Akk, Virginia
Current Conditions -  °F | °C
As of 11:35 AM on Thursday 23 Oct 2014 (Local Time) from KFYJ Reporting Station
Scattered Clouds Scattered Clouds  
Wind Chill: 64°   Ceiling: Unl
Heat Index: 64°   Visibility: 10mi
Dew Point: 43°   Wind: 12mph
Humidity: 47%   Direction: 320°NW
Pressure: 29.91"   Gusts: 22mph
Location:  37.4383°N, 76.5764°W
Report Text: KFYJ 231535Z AUTO 32010G19KT 10SM SCT039 18/06 A2991 RMK AO2 T01750060
Loading
Personal Weather Stations






























Interactive Weather Map
Tropical Storm Tracking
New forecast layout! Learn more

10-Day Weather Forecast

Advertisements
Track Severe Weather on mobile